Bernard A — TCWN3 — position and weather

sailwx.info

Track history (hours):
 
Tides and Currents Weather Stations Pressure Air Temp Water Temp Dewpoint Dewpoint Depression Visibility Wind Speed Wind Dir Waves Ship Positions

Bernard A

Last reported at 2016-Aug-20 11:13 UTC. Time now 2016-Aug-26 08:26 UTC.
Position N 40°53' E 028°55'.

Length 184 m; draft 8 m.

Type: Ship (hazmat cat A). MMSI: 271040008.

Date/timePositionNaut miles runAvg speedWind from/ knotsBaromVisibWave heightAir tempDewpointWater temp
2016-Aug-20 11:13N 40°53' E 028°55'8 7.3
2016-Aug-20 10:05N 40°46' E 028°49'1 1.5
2016-Aug-20 09:33N 40°47' E 028°50'2 0.5
2016-Aug-20 05:22N 40°45' E 028°50'1 1.3
2016-Aug-20 04:31N 40°46' E 028°49'1 1.2
2016-Aug-20 03:33N 40°47' E 028°49'1 1.2
2016-Aug-20 02:33N 40°48' E 028°50'2 1.6
2016-Aug-20 01:25N 40°50' E 028°52'1 1.6
2016-Aug-20 00:32N 40°50' E 028°50'10 0.2
2016-Aug-18 04:23N 40°57' E 028°41'1012.0
2016-Aug-18 03:33N 40°56' E 028°54'  
2016-Aug-13 04:16N 44°03' E 038°31'1013.4
2016-Aug-13 03:30N 43°56' E 038°41'1313.3
2016-Aug-13 02:33N 43°47' E 038°53'  
2016-Aug-10 12:20N 42°10' E 034°12'  
Track history (hours):
 
Tides and Currents Weather Stations Pressure Air Temp Water Temp Dewpoint Dewpoint Depression Visibility Wind Speed Wind Dir Waves Ship Positions

Bernard A

Last reported at 2016-Aug-20 11:13 UTC. Time now 2016-Aug-26 08:26 UTC.
Position N 40°53' E 028°55'.

Length 184 m; draft 8 m.

Type: Ship (hazmat cat A). MMSI: 271040008.

Date/timePositionNaut miles runAvg speedWind from/ knotsBaromVisibWave heightAir tempDewpointWater temp
2016-Aug-20 11:13N 40°53' E 028°55'8 7.3
2016-Aug-20 10:05N 40°46' E 028°49'1 1.5
2016-Aug-20 09:33N 40°47' E 028°50'2 0.5
2016-Aug-20 05:22N 40°45' E 028°50'1 1.3
2016-Aug-20 04:31N 40°46' E 028°49'1 1.2
2016-Aug-20 03:33N 40°47' E 028°49'1 1.2
2016-Aug-20 02:33N 40°48' E 028°50'2 1.6
2016-Aug-20 01:25N 40°50' E 028°52'1 1.6
2016-Aug-20 00:32N 40°50' E 028°50'10 0.2
2016-Aug-18 04:23N 40°57' E 028°41'1012.0
2016-Aug-18 03:33N 40°56' E 028°54'  
2016-Aug-13 04:16N 44°03' E 038°31'1013.4
2016-Aug-13 03:30N 43°56' E 038°41'1313.3
2016-Aug-13 02:33N 43°47' E 038°53'  
2016-Aug-10 12:20N 42°10' E 034°12'  

Dump ship's entire track history